sensor_id;sensor_type;location;lat;lon;timestamp;temperature;humidity
4097;DHT22;2062;50.694;7.246;2023-12-14T00:01:38;7.20;71.00
4097;DHT22;2062;50.694;7.246;2023-12-14T00:04:05;7.20;71.00
4097;DHT22;2062;50.694;7.246;2023-12-14T00:06:33;7.20;71.10
4097;DHT22;2062;50.694;7.246;2023-12-14T00:09:00;7.20;71.10
4097;DHT22;2062;50.694;7.246;2023-12-14T00:11:27;7.20;71.10
4097;DHT22;2062;50.694;7.246;2023-12-14T00:13:53;7.20;71.10
4097;DHT22;2062;50.694;7.246;2023-12-14T00:16:20;7.30;71.20
4097;DHT22;2062;50.694;7.246;2023-12-14T00:18:47;7.30;71.30
4097;DHT22;2062;50.694;7.246;2023-12-14T00:21:14;7.30;71.40
4097;DHT22;2062;50.694;7.246;2023-12-14T00:23:42;7.30;71.60
4097;DHT22;2062;50.694;7.246;2023-12-14T00:26:09;7.30;71.60
4097;DHT22;2062;50.694;7.246;2023-12-14T00:28:35;7.30;71.70
4097;DHT22;2062;50.694;7.246;2023-12-14T00:31:02;7.30;71.70
4097;DHT22;2062;50.694;7.246;2023-12-14T00:33:29;7.30;71.80
4097;DHT22;2062;50.694;7.246;2023-12-14T00:35:56;7.30;72.00
4097;DHT22;2062;50.694;7.246;2023-12-14T00:38:22;7.30;72.00
4097;DHT22;2062;50.694;7.246;2023-12-14T00:40:50;7.30;72.10
4097;DHT22;2062;50.694;7.246;2023-12-14T00:43:17;7.30;72.00
4097;DHT22;2062;50.694;7.246;2023-12-14T00:45:44;7.30;73.10
4097;DHT22;2062;50.694;7.246;2023-12-14T00:48:11;7.40;72.30
4097;DHT22;2062;50.694;7.246;2023-12-14T00:50:38;7.40;72.50
4097;DHT22;2062;50.694;7.246;2023-12-14T00:53:04;7.40;72.40
4097;DHT22;2062;50.694;7.246;2023-12-14T00:55:31;7.40;72.50
4097;DHT22;2062;50.694;7.246;2023-12-14T00:57:59;7.40;72.50
4097;DHT22;2062;50.694;7.246;2023-12-14T01:00:26;7.40;72.60
4097;DHT22;2062;50.694;7.246;2023-12-14T01:02:53;7.40;72.70
4097;DHT22;2062;50.694;7.246;2023-12-14T01:05:20;7.50;72.80
4097;DHT22;2062;50.694;7.246;2023-12-14T01:07:46;7.50;72.90
4097;DHT22;2062;50.694;7.246;2023-12-14T01:10:13;7.50;73.00
4097;DHT22;2062;50.694;7.246;2023-12-14T01:12:40;7.50;72.90
4097;DHT22;2062;50.694;7.246;2023-12-14T01:15:09;7.60;73.00
4097;DHT22;2062;50.694;7.246;2023-12-14T01:17:36;7.60;73.10
4097;DHT22;2062;50.694;7.246;2023-12-14T01:20:04;7.60;73.20
4097;DHT22;2062;50.694;7.246;2023-12-14T01:22:32;7.60;73.30
4097;DHT22;2062;50.694;7.246;2023-12-14T01:24:59;7.60;73.30
4097;DHT22;2062;50.694;7.246;2023-12-14T01:27:26;7.60;73.30
4097;DHT22;2062;50.694;7.246;2023-12-14T01:29:52;7.60;73.40
4097;DHT22;2062;50.694;7.246;2023-12-14T01:32:21;7.60;73.40
4097;DHT22;2062;50.694;7.246;2023-12-14T01:34:47;7.60;73.40
4097;DHT22;2062;50.694;7.246;2023-12-14T01:37:14;7.60;73.60
4097;DHT22;2062;50.694;7.246;2023-12-14T01:39:41;7.70;73.70
4097;DHT22;2062;50.694;7.246;2023-12-14T01:42:08;7.70;73.70
4097;DHT22;2062;50.694;7.246;2023-12-14T01:44:34;7.70;73.70
4097;DHT22;2062;50.694;7.246;2023-12-14T01:47:01;7.70;73.70
4097;DHT22;2062;50.694;7.246;2023-12-14T01:49:29;7.70;73.80
4097;DHT22;2062;50.694;7.246;2023-12-14T01:51:56;7.70;73.70
4097;DHT22;2062;50.694;7.246;2023-12-14T01:54:23;7.70;73.70
4097;DHT22;2062;50.694;7.246;2023-12-14T01:56:50;7.70;73.80
4097;DHT22;2062;50.694;7.246;2023-12-14T01:59:17;7.70;73.90
4097;DHT22;2062;50.694;7.246;2023-12-14T02:01:45;7.70;73.90
4097;DHT22;2062;50.694;7.246;2023-12-14T02:04:12;7.70;73.90
4097;DHT22;2062;50.694;7.246;2023-12-14T02:06:41;7.70;74.00
4097;DHT22;2062;50.694;7.246;2023-12-14T02:09:08;7.70;74.00
4097;DHT22;2062;50.694;7.246;2023-12-14T02:11:35;7.70;74.30
4097;DHT22;2062;50.694;7.246;2023-12-14T02:14:05;7.80;74.10
4097;DHT22;2062;50.694;7.246;2023-12-14T02:16:32;7.80;74.10
4097;DHT22;2062;50.694;7.246;2023-12-14T02:18:59;7.80;74.10
4097;DHT22;2062;50.694;7.246;2023-12-14T02:21:26;7.80;74.20
4097;DHT22;2062;50.694;7.246;2023-12-14T02:23:54;7.80;74.10
4097;DHT22;2062;50.694;7.246;2023-12-14T02:26:20;7.80;74.20
4097;DHT22;2062;50.694;7.246;2023-12-14T02:28:47;7.80;74.20
4097;DHT22;2062;50.694;7.246;2023-12-14T02:31:14;7.80;74.30
4097;DHT22;2062;50.694;7.246;2023-12-14T02:33:41;7.90;74.50
4097;DHT22;2062;50.694;7.246;2023-12-14T02:36:08;7.80;74.50
4097;DHT22;2062;50.694;7.246;2023-12-14T02:38:35;7.90;74.60
4097;DHT22;2062;50.694;7.246;2023-12-14T02:41:03;7.80;74.50
4097;DHT22;2062;50.694;7.246;2023-12-14T02:43:30;7.80;74.60
4097;DHT22;2062;50.694;7.246;2023-12-14T02:45:57;7.90;74.70
4097;DHT22;2062;50.694;7.246;2023-12-14T02:48:27;7.80;74.50
4097;DHT22;2062;50.694;7.246;2023-12-14T02:50:54;7.90;74.70
4097;DHT22;2062;50.694;7.246;2023-12-14T02:53:21;7.90;74.70
4097;DHT22;2062;50.694;7.246;2023-12-14T02:55:48;7.90;74.80
4097;DHT22;2062;50.694;7.246;2023-12-14T02:58:16;7.90;74.80
4097;DHT22;2062;50.694;7.246;2023-12-14T03:00:43;7.90;74.80
4097;DHT22;2062;50.694;7.246;2023-12-14T03:03:10;7.90;74.80
4097;DHT22;2062;50.694;7.246;2023-12-14T03:05:37;7.90;74.80
4097;DHT22;2062;50.694;7.246;2023-12-14T03:08:04;7.90;74.90
4097;DHT22;2062;50.694;7.246;2023-12-14T03:10:30;7.90;74.90
4097;DHT22;2062;50.694;7.246;2023-12-14T03:12:57;7.90;74.90
4097;DHT22;2062;50.694;7.246;2023-12-14T03:15:25;7.90;75.00
4097;DHT22;2062;50.694;7.246;2023-12-14T03:17:52;7.90;74.90
4097;DHT22;2062;50.694;7.246;2023-12-14T03:20:19;7.90;75.00
4097;DHT22;2062;50.694;7.246;2023-12-14T03:22:46;7.90;75.00
4097;DHT22;2062;50.694;7.246;2023-12-14T03:25:13;7.90;75.00
4097;DHT22;2062;50.694;7.246;2023-12-14T03:27:40;7.90;75.00
4097;DHT22;2062;50.694;7.246;2023-12-14T03:30:07;7.90;75.00
4097;DHT22;2062;50.694;7.246;2023-12-14T03:32:37;7.90;75.00
4097;DHT22;2062;50.694;7.246;2023-12-14T03:35:04;7.90;75.00
4097;DHT22;2062;50.694;7.246;2023-12-14T03:37:32;8.00;75.10
4097;DHT22;2062;50.694;7.246;2023-12-14T03:39:58;7.90;75.30
4097;DHT22;2062;50.694;7.246;2023-12-14T03:42:25;7.90;75.30
4097;DHT22;2062;50.694;7.246;2023-12-14T03:44:52;8.00;75.40
4097;DHT22;2062;50.694;7.246;2023-12-14T03:47:19;8.00;75.70
4097;DHT22;2062;50.694;7.246;2023-12-14T03:49:47;8.00;75.30
4097;DHT22;2062;50.694;7.246;2023-12-14T03:52:15;8.00;75.50
4097;DHT22;2062;50.694;7.246;2023-12-14T03:54:41;8.00;75.50
4097;DHT22;2062;50.694;7.246;2023-12-14T03:57:08;8.00;75.60
4097;DHT22;2062;50.694;7.246;2023-12-14T03:59:38;8.00;75.80
4097;DHT22;2062;50.694;7.246;2023-12-14T04:02:05;8.00;75.70
4097;DHT22;2062;50.694;7.246;2023-12-14T04:04:32;8.00;75.60
4097;DHT22;2062;50.694;7.246;2023-12-14T04:07:00;8.00;75.70
4097;DHT22;2062;50.694;7.246;2023-12-14T04:09:27;8.00;75.70
4097;DHT22;2062;50.694;7.246;2023-12-14T04:11:54;8.10;75.80
4097;DHT22;2062;50.694;7.246;2023-12-14T04:14:21;8.00;75.60
4097;DHT22;2062;50.694;7.246;2023-12-14T04:16:47;8.00;75.70
4097;DHT22;2062;50.694;7.246;2023-12-14T04:19:14;8.00;75.70
4097;DHT22;2062;50.694;7.246;2023-12-14T04:21:41;8.00;75.60
4097;DHT22;2062;50.694;7.246;2023-12-14T04:24:09;8.10;75.80
4097;DHT22;2062;50.694;7.246;2023-12-14T04:26:38;8.10;75.80
4097;DHT22;2062;50.694;7.246;2023-12-14T04:29:05;8.10;75.80
4097;DHT22;2062;50.694;7.246;2023-12-14T04:31:33;8.10;75.80
4097;DHT22;2062;50.694;7.246;2023-12-14T04:34:00;8.10;75.90
4097;DHT22;2062;50.694;7.246;2023-12-14T04:36:26;8.10;76.00
4097;DHT22;2062;50.694;7.246;2023-12-14T04:38:53;8.10;76.10
4097;DHT22;2062;50.694;7.246;2023-12-14T04:41:21;8.10;76.00
4097;DHT22;2062;50.694;7.246;2023-12-14T04:43:48;8.10;76.30
4097;DHT22;2062;50.694;7.246;2023-12-14T04:46:15;8.10;76.20
4097;DHT22;2062;50.694;7.246;2023-12-14T04:48:42;8.10;76.20
4097;DHT22;2062;50.694;7.246;2023-12-14T04:51:11;8.10;76.20
4097;DHT22;2062;50.694;7.246;2023-12-14T04:53:39;8.10;76.20
4097;DHT22;2062;50.694;7.246;2023-12-14T04:56:09;8.10;76.30
4097;DHT22;2062;50.694;7.246;2023-12-14T04:58:38;8.10;76.30
4097;DHT22;2062;50.694;7.246;2023-12-14T05:01:05;8.10;76.40
4097;DHT22;2062;50.694;7.246;2023-12-14T05:03:34;8.10;76.40
4097;DHT22;2062;50.694;7.246;2023-12-14T05:06:01;8.10;76.40
4097;DHT22;2062;50.694;7.246;2023-12-14T05:08:28;8.10;76.30
4097;DHT22;2062;50.694;7.246;2023-12-14T05:10:54;8.10;76.30
4097;DHT22;2062;50.694;7.246;2023-12-14T05:13:21;8.10;76.30
4097;DHT22;2062;50.694;7.246;2023-12-14T05:15:50;8.10;76.30
4097;DHT22;2062;50.694;7.246;2023-12-14T05:18:17;8.10;76.10
4097;DHT22;2062;50.694;7.246;2023-12-14T05:20:44;8.10;76.00
4097;DHT22;2062;50.694;7.246;2023-12-14T05:23:11;8.00;75.90
4097;DHT22;2062;50.694;7.246;2023-12-14T05:25:38;8.00;75.80
4097;DHT22;2062;50.694;7.246;2023-12-14T05:28:05;8.00;75.90
4097;DHT22;2062;50.694;7.246;2023-12-14T05:30:32;8.00;75.80
4097;DHT22;2062;50.694;7.246;2023-12-14T05:33:00;8.00;75.80
4097;DHT22;2062;50.694;7.246;2023-12-14T05:35:27;8.00;75.80
4097;DHT22;2062;50.694;7.246;2023-12-14T05:37:54;8.00;75.80
4097;DHT22;2062;50.694;7.246;2023-12-14T05:40:21;8.00;75.70
4097;DHT22;2062;50.694;7.246;2023-12-14T05:42:48;8.00;75.70
4097;DHT22;2062;50.694;7.246;2023-12-14T05:45:15;8.00;75.60
4097;DHT22;2062;50.694;7.246;2023-12-14T05:47:44;7.90;75.50
4097;DHT22;2062;50.694;7.246;2023-12-14T05:50:12;7.90;75.50
4097;DHT22;2062;50.694;7.246;2023-12-14T05:52:38;7.90;75.40
4097;DHT22;2062;50.694;7.246;2023-12-14T05:55:07;7.90;75.40
4097;DHT22;2062;50.694;7.246;2023-12-14T05:57:35;7.90;75.40
4097;DHT22;2062;50.694;7.246;2023-12-14T06:00:01;7.90;75.40
4097;DHT22;2062;50.694;7.246;2023-12-14T06:02:29;7.90;75.40
4097;DHT22;2062;50.694;7.246;2023-12-14T06:04:57;7.90;75.30
4097;DHT22;2062;50.694;7.246;2023-12-14T06:07:25;7.90;75.30
4097;DHT22;2062;50.694;7.246;2023-12-14T06:09:52;7.90;75.30
4097;DHT22;2062;50.694;7.246;2023-12-14T06:12:19;7.90;75.30
4097;DHT22;2062;50.694;7.246;2023-12-14T06:14:45;7.80;75.20
4097;DHT22;2062;50.694;7.246;2023-12-14T06:17:12;7.80;75.20
4097;DHT22;2062;50.694;7.246;2023-12-14T06:19:39;7.80;75.20
4097;DHT22;2062;50.694;7.246;2023-12-14T06:22:06;7.80;75.20
4097;DHT22;2062;50.694;7.246;2023-12-14T06:24:34;7.80;75.20
4097;DHT22;2062;50.694;7.246;2023-12-14T06:27:01;7.80;75.20
4097;DHT22;2062;50.694;7.246;2023-12-14T06:29:28;7.80;75.20
4097;DHT22;2062;50.694;7.246;2023-12-14T06:31:54;7.70;75.20
4097;DHT22;2062;50.694;7.246;2023-12-14T06:34:21;7.80;75.30
4097;DHT22;2062;50.694;7.246;2023-12-14T06:36:48;7.70;75.30
4097;DHT22;2062;50.694;7.246;2023-12-14T06:39:15;7.70;75.20
4097;DHT22;2062;50.694;7.246;2023-12-14T06:41:43;7.70;75.40
4097;DHT22;2062;50.694;7.246;2023-12-14T06:44:10;7.70;75.50
4097;DHT22;2062;50.694;7.246;2023-12-14T06:46:37;7.70;75.40
4097;DHT22;2062;50.694;7.246;2023-12-14T06:49:04;7.70;75.50
4097;DHT22;2062;50.694;7.246;2023-12-14T06:51:30;7.70;75.60
4097;DHT22;2062;50.694;7.246;2023-12-14T06:53:57;7.70;75.50
4097;DHT22;2062;50.694;7.246;2023-12-14T06:56:24;7.70;75.50
4097;DHT22;2062;50.694;7.246;2023-12-14T06:58:52;7.60;75.30
4097;DHT22;2062;50.694;7.246;2023-12-14T07:01:19;7.70;76.30
4097;DHT22;2062;50.694;7.246;2023-12-14T07:03:46;7.70;75.40
4097;DHT22;2062;50.694;7.246;2023-12-14T07:06:13;7.60;75.20
4097;DHT22;2062;50.694;7.246;2023-12-14T07:08:40;7.60;75.20
4097;DHT22;2062;50.694;7.246;2023-12-14T07:11:07;7.70;75.30
4097;DHT22;2062;50.694;7.246;2023-12-14T07:13:34;7.60;75.20
4097;DHT22;2062;50.694;7.246;2023-12-14T07:16:05;7.60;75.30
4097;DHT22;2062;50.694;7.246;2023-12-14T07:18:33;7.60;75.20
4097;DHT22;2062;50.694;7.246;2023-12-14T07:21:00;7.60;75.30
4097;DHT22;2062;50.694;7.246;2023-12-14T07:23:27;7.60;75.20
4097;DHT22;2062;50.694;7.246;2023-12-14T07:25:53;7.60;75.30
4097;DHT22;2062;50.694;7.246;2023-12-14T07:28:20;7.50;75.30
4097;DHT22;2062;50.694;7.246;2023-12-14T07:30:47;7.50;75.40
4097;DHT22;2062;50.694;7.246;2023-12-14T07:33:16;7.50;75.40
4097;DHT22;2062;50.694;7.246;2023-12-14T07:35:43;7.50;75.40
4097;DHT22;2062;50.694;7.246;2023-12-14T07:38:10;7.50;75.30
4097;DHT22;2062;50.694;7.246;2023-12-14T07:40:37;7.50;75.30
4097;DHT22;2062;50.694;7.246;2023-12-14T07:43:04;7.50;75.40
4097;DHT22;2062;50.694;7.246;2023-12-14T07:45:31;7.50;75.30
4097;DHT22;2062;50.694;7.246;2023-12-14T07:47:57;7.50;75.30
4097;DHT22;2062;50.694;7.246;2023-12-14T07:50:26;7.50;75.40
4097;DHT22;2062;50.694;7.246;2023-12-14T07:52:52;7.40;75.30
4097;DHT22;2062;50.694;7.246;2023-12-14T07:55:20;7.50;75.30
4097;DHT22;2062;50.694;7.246;2023-12-14T07:57:46;7.40;75.30
4097;DHT22;2062;50.694;7.246;2023-12-14T08:00:15;7.40;75.20
4097;DHT22;2062;50.694;7.246;2023-12-14T08:02:42;7.40;75.20
4097;DHT22;2062;50.694;7.246;2023-12-14T08:05:09;7.40;75.20
4097;DHT22;2062;50.694;7.246;2023-12-14T08:07:37;7.40;75.30
4097;DHT22;2062;50.694;7.246;2023-12-14T08:10:04;7.40;75.30
4097;DHT22;2062;50.694;7.246;2023-12-14T08:12:31;7.40;75.30
4097;DHT22;2062;50.694;7.246;2023-12-14T08:14:58;7.40;75.20
4097;DHT22;2062;50.694;7.246;2023-12-14T08:17:25;7.40;75.30
4097;DHT22;2062;50.694;7.246;2023-12-14T08:19:53;7.40;75.30
4097;DHT22;2062;50.694;7.246;2023-12-14T08:22:20;7.40;75.30
4097;DHT22;2062;50.694;7.246;2023-12-14T08:24:49;7.30;75.30
4097;DHT22;2062;50.694;7.246;2023-12-14T08:27:15;7.30;75.40
4097;DHT22;2062;50.694;7.246;2023-12-14T08:29:42;7.30;75.30
4097;DHT22;2062;50.694;7.246;2023-12-14T08:32:10;7.30;75.40
4097;DHT22;2062;50.694;7.246;2023-12-14T08:34:37;7.30;75.40
4097;DHT22;2062;50.694;7.246;2023-12-14T08:37:04;7.30;75.40
4097;DHT22;2062;50.694;7.246;2023-12-14T08:39:31;7.30;75.40
4097;DHT22;2062;50.694;7.246;2023-12-14T08:41:59;7.30;75.50
4097;DHT22;2062;50.694;7.246;2023-12-14T08:44:26;7.20;75.40
4097;DHT22;2062;50.694;7.246;2023-12-14T08:46:52;7.30;75.40
4097;DHT22;2062;50.694;7.246;2023-12-14T08:49:19;7.20;75.40
4097;DHT22;2062;50.694;7.246;2023-12-14T08:51:48;7.20;75.40
4097;DHT22;2062;50.694;7.246;2023-12-14T08:54:15;7.20;75.30
4097;DHT22;2062;50.694;7.246;2023-12-14T08:56:42;7.20;75.40
4097;DHT22;2062;50.694;7.246;2023-12-14T08:59:11;7.20;75.40
4097;DHT22;2062;50.694;7.246;2023-12-14T09:01:38;7.20;75.40
4097;DHT22;2062;50.694;7.246;2023-12-14T09:04:04;7.20;75.40
4097;DHT22;2062;50.694;7.246;2023-12-14T09:06:31;7.20;75.40
4097;DHT22;2062;50.694;7.246;2023-12-14T09:08:58;7.20;75.30
4097;DHT22;2062;50.694;7.246;2023-12-14T09:11:25;7.20;75.40
4097;DHT22;2062;50.694;7.246;2023-12-14T09:13:52;7.20;75.30
4097;DHT22;2062;50.694;7.246;2023-12-14T09:16:20;7.10;75.30
4097;DHT22;2062;50.694;7.246;2023-12-14T09:18:46;7.20;75.40
4097;DHT22;2062;50.694;7.246;2023-12-14T09:21:13;7.10;75.40
4097;DHT22;2062;50.694;7.246;2023-12-14T09:23:41;7.10;75.30
4097;DHT22;2062;50.694;7.246;2023-12-14T09:26:08;7.10;75.40
4097;DHT22;2062;50.694;7.246;2023-12-14T09:28:36;7.20;75.40
4097;DHT22;2062;50.694;7.246;2023-12-14T09:31:03;7.20;75.40
4097;DHT22;2062;50.694;7.246;2023-12-14T09:33:31;7.10;75.40
4097;DHT22;2062;50.694;7.246;2023-12-14T09:35:58;7.10;75.40
4097;DHT22;2062;50.694;7.246;2023-12-14T09:38:25;7.10;75.40
4097;DHT22;2062;50.694;7.246;2023-12-14T09:40:51;7.10;75.40
4097;DHT22;2062;50.694;7.246;2023-12-14T09:43:18;7.10;75.50
4097;DHT22;2062;50.694;7.246;2023-12-14T09:45:47;7.10;75.50
4097;DHT22;2062;50.694;7.246;2023-12-14T09:48:15;7.00;75.30
4097;DHT22;2062;50.694;7.246;2023-12-14T09:50:44;7.10;75.50
4097;DHT22;2062;50.694;7.246;2023-12-14T09:53:12;7.10;75.40
4097;DHT22;2062;50.694;7.246;2023-12-14T09:55:39;7.10;75.50
4097;DHT22;2062;50.694;7.246;2023-12-14T09:58:06;7.10;75.40
4097;DHT22;2062;50.694;7.246;2023-12-14T10:00:36;7.10;75.50
4097;DHT22;2062;50.694;7.246;2023-12-14T10:03:23;7.10;75.50
4097;DHT22;2062;50.694;7.246;2023-12-14T10:05:53;7.00;75.40
4097;DHT22;2062;50.694;7.246;2023-12-14T10:08:21;7.00;75.40
4097;DHT22;2062;50.694;7.246;2023-12-14T10:10:48;7.00;75.40
4097;DHT22;2062;50.694;7.246;2023-12-14T10:13:16;7.00;75.40
4097;DHT22;2062;50.694;7.246;2023-12-14T10:15:44;7.00;75.40
4097;DHT22;2062;50.694;7.246;2023-12-14T10:18:12;7.00;75.30
4097;DHT22;2062;50.694;7.246;2023-12-14T10:20:39;7.00;75.30
4097;DHT22;2062;50.694;7.246;2023-12-14T10:23:07;7.00;75.40
4097;DHT22;2062;50.694;7.246;2023-12-14T10:25:35;7.00;75.40
4097;DHT22;2062;50.694;7.246;2023-12-14T10:28:02;6.90;75.40
4097;DHT22;2062;50.694;7.246;2023-12-14T10:30:29;7.00;75.40
4097;DHT22;2062;50.694;7.246;2023-12-14T10:32:57;7.00;75.40
4097;DHT22;2062;50.694;7.246;2023-12-14T10:35:23;7.00;75.40
4097;DHT22;2062;50.694;7.246;2023-12-14T10:37:51;6.90;75.40
4097;DHT22;2062;50.694;7.246;2023-12-14T10:40:21;6.90;75.50
4097;DHT22;2062;50.694;7.246;2023-12-14T10:42:49;6.90;75.50
4097;DHT22;2062;50.694;7.246;2023-12-14T10:45:18;6.90;75.50
4097;DHT22;2062;50.694;7.246;2023-12-14T10:47:46;7.00;75.60
4097;DHT22;2062;50.694;7.246;2023-12-14T10:50:13;6.90;75.60
4097;DHT22;2062;50.694;7.246;2023-12-14T10:52:41;7.00;75.60
4097;DHT22;2062;50.694;7.246;2023-12-14T10:55:11;6.90;75.60
4097;DHT22;2062;50.694;7.246;2023-12-14T10:57:42;6.90;75.60
4097;DHT22;2062;50.694;7.246;2023-12-14T11:00:09;6.90;75.50
4097;DHT22;2062;50.694;7.246;2023-12-14T11:02:40;6.90;75.60
4097;DHT22;2062;50.694;7.246;2023-12-14T11:05:11;6.90;75.50
4097;DHT22;2062;50.694;7.246;2023-12-14T11:07:48;7.00;75.50
4097;DHT22;2062;50.694;7.246;2023-12-14T11:10:20;7.00;75.60
4097;DHT22;2062;50.694;7.246;2023-12-14T11:12:55;6.90;75.50
4097;DHT22;2062;50.694;7.246;2023-12-14T11:15:23;6.90;76.40
4097;DHT22;2062;50.694;7.246;2023-12-14T11:18:21;6.90;75.50
4097;DHT22;2062;50.694;7.246;2023-12-14T11:20:49;6.90;75.50
4097;DHT22;2062;50.694;7.246;2023-12-14T11:23:26;6.90;75.40
4097;DHT22;2062;50.694;7.246;2023-12-14T11:25:57;6.90;75.50
4097;DHT22;2062;50.694;7.246;2023-12-14T11:28:26;6.90;75.50
4097;DHT22;2062;50.694;7.246;2023-12-14T11:30:52;6.90;75.40
4097;DHT22;2062;50.694;7.246;2023-12-14T11:33:19;6.90;75.40
4097;DHT22;2062;50.694;7.246;2023-12-14T11:35:46;6.80;75.30
4097;DHT22;2062;50.694;7.246;2023-12-14T11:38:13;6.90;75.40
4097;DHT22;2062;50.694;7.246;2023-12-14T11:40:40;6.90;75.40
4097;DHT22;2062;50.694;7.246;2023-12-14T11:43:07;6.80;75.30
4097;DHT22;2062;50.694;7.246;2023-12-14T11:45:37;6.80;75.20
4097;DHT22;2062;50.694;7.246;2023-12-14T11:48:04;6.80;75.30
4097;DHT22;2062;50.694;7.246;2023-12-14T11:50:31;6.80;75.30
4097;DHT22;2062;50.694;7.246;2023-12-14T11:52:59;6.80;75.30
4097;DHT22;2062;50.694;7.246;2023-12-14T11:55:26;6.80;75.30
4097;DHT22;2062;50.694;7.246;2023-12-14T11:57:53;6.80;75.30
4097;DHT22;2062;50.694;7.246;2023-12-14T12:00:23;6.80;75.40
4097;DHT22;2062;50.694;7.246;2023-12-14T12:02:52;6.80;75.30
4097;DHT22;2062;50.694;7.246;2023-12-14T12:05:19;6.80;75.40
4097;DHT22;2062;50.694;7.246;2023-12-14T12:07:46;6.80;75.40
4097;DHT22;2062;50.694;7.246;2023-12-14T12:10:12;6.80;75.40
4097;DHT22;2062;50.694;7.246;2023-12-14T12:12:39;6.80;75.40
4097;DHT22;2062;50.694;7.246;2023-12-14T12:15:07;6.80;75.30
4097;DHT22;2062;50.694;7.246;2023-12-14T12:17:34;6.80;75.30
4097;DHT22;2062;50.694;7.246;2023-12-14T12:20:06;6.80;75.40
4097;DHT22;2062;50.694;7.246;2023-12-14T12:22:33;6.80;75.30
4097;DHT22;2062;50.694;7.246;2023-12-14T12:24:59;6.80;75.40
4097;DHT22;2062;50.694;7.246;2023-12-14T12:27:27;6.80;75.40
4097;DHT22;2062;50.694;7.246;2023-12-14T12:29:54;6.70;75.30
4097;DHT22;2062;50.694;7.246;2023-12-14T12:32:21;6.80;75.20
4097;DHT22;2062;50.694;7.246;2023-12-14T12:34:47;6.80;75.30
4097;DHT22;2062;50.694;7.246;2023-12-14T12:37:15;6.70;75.30
4097;DHT22;2062;50.694;7.246;2023-12-14T12:39:42;6.70;76.10
4097;DHT22;2062;50.694;7.246;2023-12-14T12:42:09;6.70;75.20
4097;DHT22;2062;50.694;7.246;2023-12-14T12:44:36;6.70;75.10
4097;DHT22;2062;50.694;7.246;2023-12-14T12:47:03;6.70;75.20
4097;DHT22;2062;50.694;7.246;2023-12-14T12:49:30;6.70;75.10
4097;DHT22;2062;50.694;7.246;2023-12-14T12:51:57;6.70;75.00
4097;DHT22;2062;50.694;7.246;2023-12-14T12:54:25;6.70;75.00
4097;DHT22;2062;50.694;7.246;2023-12-14T12:56:51;6.70;75.00
4097;DHT22;2062;50.694;7.246;2023-12-14T12:59:17;6.70;75.00
4097;DHT22;2062;50.694;7.246;2023-12-14T13:01:44;6.70;75.00
4097;DHT22;2062;50.694;7.246;2023-12-14T13:04:21;6.60;74.80
4097;DHT22;2062;50.694;7.246;2023-12-14T13:06:49;6.60;74.80
4097;DHT22;2062;50.694;7.246;2023-12-14T13:09:16;6.60;74.80
4097;DHT22;2062;50.694;7.246;2023-12-14T13:11:45;6.60;74.80
4097;DHT22;2062;50.694;7.246;2023-12-14T13:14:12;6.60;74.80
4097;DHT22;2062;50.694;7.246;2023-12-14T13:16:40;6.60;74.80
4097;DHT22;2062;50.694;7.246;2023-12-14T13:19:08;6.60;74.80
4097;DHT22;2062;50.694;7.246;2023-12-14T13:21:35;6.60;74.80
4097;DHT22;2062;50.694;7.246;2023-12-14T13:24:02;6.60;74.80
4097;DHT22;2062;50.694;7.246;2023-12-14T13:26:29;6.60;74.90
4097;DHT22;2062;50.694;7.246;2023-12-14T13:28:57;6.60;74.80
4097;DHT22;2062;50.694;7.246;2023-12-14T13:31:24;6.60;74.80
4097;DHT22;2062;50.694;7.246;2023-12-14T13:33:51;6.60;74.80
4097;DHT22;2062;50.694;7.246;2023-12-14T13:36:19;6.50;74.80
4097;DHT22;2062;50.694;7.246;2023-12-14T13:38:45;6.50;74.90
4097;DHT22;2062;50.694;7.246;2023-12-14T13:41:12;6.50;74.90
4097;DHT22;2062;50.694;7.246;2023-12-14T13:43:39;6.50;74.90
4097;DHT22;2062;50.694;7.246;2023-12-14T13:46:07;6.50;74.80
4097;DHT22;2062;50.694;7.246;2023-12-14T13:48:34;6.50;74.80
4097;DHT22;2062;50.694;7.246;2023-12-14T13:51:01;6.50;74.80
4097;DHT22;2062;50.694;7.246;2023-12-14T13:53:28;6.50;74.90
4097;DHT22;2062;50.694;7.246;2023-12-14T13:55:54;6.50;74.80
4097;DHT22;2062;50.694;7.246;2023-12-14T13:58:21;6.50;74.90
4097;DHT22;2062;50.694;7.246;2023-12-14T14:00:48;6.50;74.90
4097;DHT22;2062;50.694;7.246;2023-12-14T14:03:16;6.50;74.90
4097;DHT22;2062;50.694;7.246;2023-12-14T14:05:43;6.50;74.80
4097;DHT22;2062;50.694;7.246;2023-12-14T14:08:10;6.50;74.90
4097;DHT22;2062;50.694;7.246;2023-12-14T14:10:37;6.50;74.90
4097;DHT22;2062;50.694;7.246;2023-12-14T14:13:04;6.50;74.90
4097;DHT22;2062;50.694;7.246;2023-12-14T14:15:30;6.50;74.90
4097;DHT22;2062;50.694;7.246;2023-12-14T14:17:57;6.50;74.80
4097;DHT22;2062;50.694;7.246;2023-12-14T14:20:25;6.50;74.70
4097;DHT22;2062;50.694;7.246;2023-12-14T14:22:52;6.50;74.80
4097;DHT22;2062;50.694;7.246;2023-12-14T14:25:19;6.50;74.70
4097;DHT22;2062;50.694;7.246;2023-12-14T14:27:46;6.50;74.70
4097;DHT22;2062;50.694;7.246;2023-12-14T14:30:14;6.50;74.60
4097;DHT22;2062;50.694;7.246;2023-12-14T14:32:41;6.40;74.50
4097;DHT22;2062;50.694;7.246;2023-12-14T14:35:08;6.40;74.40
4097;DHT22;2062;50.694;7.246;2023-12-14T14:37:36;6.40;74.40
4097;DHT22;2062;50.694;7.246;2023-12-14T14:40:04;6.50;74.40
4097;DHT22;2062;50.694;7.246;2023-12-14T14:42:31;6.40;74.30
4097;DHT22;2062;50.694;7.246;2023-12-14T14:44:59;6.40;74.30
4097;DHT22;2062;50.694;7.246;2023-12-14T14:47:26;6.40;74.30
4097;DHT22;2062;50.694;7.246;2023-12-14T14:49:53;6.40;74.30
4097;DHT22;2062;50.694;7.246;2023-12-14T14:52:22;6.40;75.10
4097;DHT22;2062;50.694;7.246;2023-12-14T14:54:51;6.40;74.20
4097;DHT22;2062;50.694;7.246;2023-12-14T14:57:19;6.30;74.30
4097;DHT22;2062;50.694;7.246;2023-12-14T14:59:45;6.40;74.30
4097;DHT22;2062;50.694;7.246;2023-12-14T15:02:12;6.40;74.30
4097;DHT22;2062;50.694;7.246;2023-12-14T15:04:39;6.40;74.30
4097;DHT22;2062;50.694;7.246;2023-12-14T15:07:06;6.40;74.30
4097;DHT22;2062;50.694;7.246;2023-12-14T15:09:32;6.30;74.30
4097;DHT22;2062;50.694;7.246;2023-12-14T15:12:00;6.30;75.10
4097;DHT22;2062;50.694;7.246;2023-12-14T15:14:27;6.30;74.30
4097;DHT22;2062;50.694;7.246;2023-12-14T15:16:54;6.30;74.30
4097;DHT22;2062;50.694;7.246;2023-12-14T15:19:20;6.30;74.30
4097;DHT22;2062;50.694;7.246;2023-12-14T15:21:48;6.30;74.30
4097;DHT22;2062;50.694;7.246;2023-12-14T15:24:14;6.30;74.40
4097;DHT22;2062;50.694;7.246;2023-12-14T15:26:41;6.30;74.30
4097;DHT22;2062;50.694;7.246;2023-12-14T15:29:10;6.30;74.40
4097;DHT22;2062;50.694;7.246;2023-12-14T15:31:36;6.30;74.30
4097;DHT22;2062;50.694;7.246;2023-12-14T15:34:03;6.30;74.30
4097;DHT22;2062;50.694;7.246;2023-12-14T15:36:32;6.20;74.20
4097;DHT22;2062;50.694;7.246;2023-12-14T15:38:59;6.20;74.20
4097;DHT22;2062;50.694;7.246;2023-12-14T15:41:27;6.20;74.20
4097;DHT22;2062;50.694;7.246;2023-12-14T15:43:54;6.20;74.20
4097;DHT22;2062;50.694;7.246;2023-12-14T15:46:22;6.20;74.30
4097;DHT22;2062;50.694;7.246;2023-12-14T15:48:49;6.10;74.30
4097;DHT22;2062;50.694;7.246;2023-12-14T15:51:16;6.20;74.20
4097;DHT22;2062;50.694;7.246;2023-12-14T15:53:43;6.10;74.30
4097;DHT22;2062;50.694;7.246;2023-12-14T15:56:09;6.10;74.30
4097;DHT22;2062;50.694;7.246;2023-12-14T15:58:36;6.10;74.30
4097;DHT22;2062;50.694;7.246;2023-12-14T16:01:03;6.10;74.30
4097;DHT22;2062;50.694;7.246;2023-12-14T16:03:32;6.10;74.20
4097;DHT22;2062;50.694;7.246;2023-12-14T16:05:59;6.10;74.30
4097;DHT22;2062;50.694;7.246;2023-12-14T16:08:26;6.00;74.10
4097;DHT22;2062;50.694;7.246;2023-12-14T16:10:53;6.10;74.20
4097;DHT22;2062;50.694;7.246;2023-12-14T16:13:20;6.00;74.10
4097;DHT22;2062;50.694;7.246;2023-12-14T16:15:47;6.00;74.10
4097;DHT22;2062;50.694;7.246;2023-12-14T16:18:14;6.00;74.20